sensor_id;sensor_type;location;lat;lon;timestamp;P1;durP1;ratioP1;P2;durP2;ratioP2
30543;SDS011;43388;46.308;4.600;2023-08-30T00:00:56;3.67;;;2.45;;
30543;SDS011;43388;46.308;4.600;2023-08-30T00:03:22;2.83;;;2.53;;
30543;SDS011;43388;46.308;4.600;2023-08-30T00:05:48;4.82;;;2.38;;
30543;SDS011;43388;46.308;4.600;2023-08-30T00:08:14;2.50;;;2.30;;
30543;SDS011;43388;46.308;4.600;2023-08-30T00:10:45;3.88;;;2.80;;
30543;SDS011;43388;46.308;4.600;2023-08-30T00:13:11;3.50;;;2.50;;
30543;SDS011;43388;46.308;4.600;2023-08-30T00:15:37;5.90;;;2.33;;
30543;SDS011;43388;46.308;4.600;2023-08-30T00:18:03;3.70;;;2.63;;
30543;SDS011;43388;46.308;4.600;2023-08-30T00:20:29;2.58;;;2.38;;
30543;SDS011;43388;46.308;4.600;2023-08-30T00:22:55;2.78;;;2.35;;
30543;SDS011;43388;46.308;4.600;2023-08-30T00:25:21;2.90;;;2.30;;
30543;SDS011;43388;46.308;4.600;2023-08-30T00:27:47;3.47;;;2.60;;
30543;SDS011;43388;46.308;4.600;2023-08-30T00:30:13;5.63;;;2.53;;
30543;SDS011;43388;46.308;4.600;2023-08-30T00:32:39;2.53;;;2.33;;
30543;SDS011;43388;46.308;4.600;2023-08-30T00:35:05;3.03;;;2.42;;
30543;SDS011;43388;46.308;4.600;2023-08-30T00:37:31;3.03;;;2.67;;
30543;SDS011;43388;46.308;4.600;2023-08-30T00:39:57;3.85;;;2.65;;
30543;SDS011;43388;46.308;4.600;2023-08-30T00:42:24;2.53;;;2.30;;
30543;SDS011;43388;46.308;4.600;2023-08-30T00:44:51;3.33;;;2.58;;
30543;SDS011;43388;46.308;4.600;2023-08-30T00:47:17;3.15;;;2.85;;
30543;SDS011;43388;46.308;4.600;2023-08-30T00:49:43;4.18;;;2.75;;
30543;SDS011;43388;46.308;4.600;2023-08-30T00:52:09;2.38;;;2.17;;
30543;SDS011;43388;46.308;4.600;2023-08-30T00:54:36;3.53;;;2.10;;
30543;SDS011;43388;46.308;4.600;2023-08-30T00:57:03;2.60;;;2.40;;
30543;SDS011;43388;46.308;4.600;2023-08-30T00:59:30;2.72;;;2.40;;
30543;SDS011;43388;46.308;4.600;2023-08-30T01:01:57;4.05;;;2.70;;
30543;SDS011;43388;46.308;4.600;2023-08-30T01:04:23;5.10;;;2.90;;
30543;SDS011;43388;46.308;4.600;2023-08-30T01:06:50;2.80;;;2.42;;
30543;SDS011;43388;46.308;4.600;2023-08-30T01:09:17;3.00;;;2.50;;
30543;SDS011;43388;46.308;4.600;2023-08-30T01:12:27;4.00;;;2.45;;
30543;SDS011;43388;46.308;4.600;2023-08-30T01:14:44;2.75;;;2.53;;
30543;SDS011;43388;46.308;4.600;2023-08-30T01:17:11;2.42;;;2.08;;
30543;SDS011;43388;46.308;4.600;2023-08-30T01:19:47;2.58;;;2.38;;
30543;SDS011;43388;46.308;4.600;2023-08-30T01:27:40;4.32;;;3.10;;
30543;SDS011;43388;46.308;4.600;2023-08-30T01:30:09;4.45;;;2.90;;
30543;SDS011;43388;46.308;4.600;2023-08-30T01:32:36;2.90;;;2.50;;
30543;SDS011;43388;46.308;4.600;2023-08-30T01:35:03;2.88;;;2.67;;
30543;SDS011;43388;46.308;4.600;2023-08-30T01:37:29;5.43;;;2.75;;
30543;SDS011;43388;46.308;4.600;2023-08-30T01:39:56;2.75;;;2.55;;
30543;SDS011;43388;46.308;4.600;2023-08-30T01:42:23;3.00;;;2.35;;
30543;SDS011;43388;46.308;4.600;2023-08-30T01:44:50;3.15;;;2.55;;
30543;SDS011;43388;46.308;4.600;2023-08-30T01:47:19;6.00;;;2.60;;
30543;SDS011;43388;46.308;4.600;2023-08-30T01:49:46;2.45;;;2.25;;
30543;SDS011;43388;46.308;4.600;2023-08-30T01:52:12;3.10;;;2.90;;
30543;SDS011;43388;46.308;4.600;2023-08-30T01:54:38;3.88;;;2.53;;
30543;SDS011;43388;46.308;4.600;2023-08-30T01:57:05;5.15;;;2.47;;
30543;SDS011;43388;46.308;4.600;2023-08-30T01:59:31;3.60;;;2.80;;
30543;SDS011;43388;46.308;4.600;2023-08-30T02:01:57;3.60;;;2.92;;
30543;SDS011;43388;46.308;4.600;2023-08-30T02:04:23;3.10;;;2.60;;
30543;SDS011;43388;46.308;4.600;2023-08-30T02:06:50;5.32;;;2.28;;
30543;SDS011;43388;46.308;4.600;2023-08-30T02:12:04;2.30;;;2.10;;
30543;SDS011;43388;46.308;4.600;2023-08-30T02:14:32;3.92;;;2.90;;
30543;SDS011;43388;46.308;4.600;2023-08-30T02:16:58;2.95;;;2.60;;
30543;SDS011;43388;46.308;4.600;2023-08-30T02:19:24;2.90;;;2.70;;
30543;SDS011;43388;46.308;4.600;2023-08-30T02:21:51;9.75;;;2.97;;
30543;SDS011;43388;46.308;4.600;2023-08-30T02:24:17;4.03;;;2.13;;
30543;SDS011;43388;46.308;4.600;2023-08-30T02:26:43;2.60;;;2.35;;
30543;SDS011;43388;46.308;4.600;2023-08-30T02:29:09;3.95;;;2.47;;
30543;SDS011;43388;46.308;4.600;2023-08-30T02:31:35;7.43;;;2.58;;
30543;SDS011;43388;46.308;4.600;2023-08-30T02:34:01;2.88;;;2.28;;
30543;SDS011;43388;46.308;4.600;2023-08-30T02:36:27;2.45;;;2.17;;
30543;SDS011;43388;46.308;4.600;2023-08-30T02:38:53;3.33;;;2.80;;
30543;SDS011;43388;46.308;4.600;2023-08-30T02:41:19;3.17;;;2.83;;
30543;SDS011;43388;46.308;4.600;2023-08-30T02:43:45;3.75;;;2.80;;
30543;SDS011;43388;46.308;4.600;2023-08-30T02:46:11;2.85;;;2.55;;
30543;SDS011;43388;46.308;4.600;2023-08-30T02:48:37;2.60;;;2.40;;
30543;SDS011;43388;46.308;4.600;2023-08-30T02:51:03;2.70;;;2.50;;
30543;SDS011;43388;46.308;4.600;2023-08-30T02:53:29;5.28;;;2.63;;
30543;SDS011;43388;46.308;4.600;2023-08-30T02:55:55;4.90;;;2.50;;
30543;SDS011;43388;46.308;4.600;2023-08-30T02:58:21;2.85;;;2.60;;
30543;SDS011;43388;46.308;4.600;2023-08-30T03:00:48;3.80;;;2.33;;
30543;SDS011;43388;46.308;4.600;2023-08-30T03:03:14;2.25;;;2.15;;
30543;SDS011;43388;46.308;4.600;2023-08-30T03:05:40;3.42;;;2.88;;
30543;SDS011;43388;46.308;4.600;2023-08-30T03:08:06;2.97;;;2.70;;
30543;SDS011;43388;46.308;4.600;2023-08-30T03:10:32;2.90;;;2.67;;
30543;SDS011;43388;46.308;4.600;2023-08-30T03:12:58;3.03;;;2.83;;
30543;SDS011;43388;46.308;4.600;2023-08-30T03:15:24;3.05;;;2.70;;
30543;SDS011;43388;46.308;4.600;2023-08-30T03:17:50;3.78;;;2.67;;
30543;SDS011;43388;46.308;4.600;2023-08-30T03:20:16;3.17;;;2.58;;
30543;SDS011;43388;46.308;4.600;2023-08-30T03:22:42;4.65;;;3.13;;
30543;SDS011;43388;46.308;4.600;2023-08-30T03:25:08;3.63;;;2.70;;
30543;SDS011;43388;46.308;4.600;2023-08-30T03:27:34;3.53;;;3.15;;
30543;SDS011;43388;46.308;4.600;2023-08-30T03:30:01;3.95;;;2.70;;
30543;SDS011;43388;46.308;4.600;2023-08-30T03:32:28;3.90;;;2.60;;
30543;SDS011;43388;46.308;4.600;2023-08-30T03:34:54;2.95;;;2.70;;
30543;SDS011;43388;46.308;4.600;2023-08-30T03:37:20;2.83;;;2.63;;
30543;SDS011;43388;46.308;4.600;2023-08-30T03:39:46;2.88;;;2.67;;
30543;SDS011;43388;46.308;4.600;2023-08-30T03:42:12;2.85;;;2.65;;
30543;SDS011;43388;46.308;4.600;2023-08-30T03:44:38;3.70;;;2.97;;
30543;SDS011;43388;46.308;4.600;2023-08-30T03:47:04;3.80;;;2.92;;
30543;SDS011;43388;46.308;4.600;2023-08-30T03:49:30;3.42;;;3.10;;
30543;SDS011;43388;46.308;4.600;2023-08-30T03:51:56;3.35;;;2.95;;
30543;SDS011;43388;46.308;4.600;2023-08-30T03:54:22;4.57;;;2.70;;
30543;SDS011;43388;46.308;4.600;2023-08-30T03:56:48;3.33;;;2.78;;
30543;SDS011;43388;46.308;4.600;2023-08-30T03:59:14;4.45;;;3.10;;
30543;SDS011;43388;46.308;4.600;2023-08-30T04:01:40;2.88;;;2.67;;
30543;SDS011;43388;46.308;4.600;2023-08-30T04:04:06;3.58;;;3.28;;
30543;SDS011;43388;46.308;4.600;2023-08-30T04:06:32;3.38;;;3.10;;
30543;SDS011;43388;46.308;4.600;2023-08-30T04:08:58;6.28;;;2.70;;
30543;SDS011;43388;46.308;4.600;2023-08-30T04:11:24;3.55;;;3.10;;
30543;SDS011;43388;46.308;4.600;2023-08-30T04:13:50;2.90;;;2.60;;
30543;SDS011;43388;46.308;4.600;2023-08-30T04:16:17;6.18;;;3.58;;
30543;SDS011;43388;46.308;4.600;2023-08-30T04:18:43;5.88;;;3.53;;
30543;SDS011;43388;46.308;4.600;2023-08-30T04:21:09;3.90;;;3.60;;
30543;SDS011;43388;46.308;4.600;2023-08-30T04:23:35;6.25;;;3.30;;
30543;SDS011;43388;46.308;4.600;2023-08-30T04:26:01;3.22;;;3.00;;
30543;SDS011;43388;46.308;4.600;2023-08-30T04:28:27;3.80;;;3.00;;
30543;SDS011;43388;46.308;4.600;2023-08-30T04:30:54;3.22;;;3.03;;
30543;SDS011;43388;46.308;4.600;2023-08-30T04:33:20;3.60;;;3.30;;
30543;SDS011;43388;46.308;4.600;2023-08-30T04:35:50;3.33;;;3.05;;
30543;SDS011;43388;46.308;4.600;2023-08-30T04:38:16;4.32;;;3.28;;
30543;SDS011;43388;46.308;4.600;2023-08-30T04:40:42;3.53;;;3.22;;
30543;SDS011;43388;46.308;4.600;2023-08-30T04:43:08;4.03;;;3.70;;
30543;SDS011;43388;46.308;4.600;2023-08-30T04:45:34;4.00;;;3.30;;
30543;SDS011;43388;46.308;4.600;2023-08-30T04:48:00;4.38;;;3.25;;
30543;SDS011;43388;46.308;4.600;2023-08-30T04:50:26;3.75;;;3.45;;
30543;SDS011;43388;46.308;4.600;2023-08-30T04:52:53;4.65;;;3.90;;
30543;SDS011;43388;46.308;4.600;2023-08-30T04:55:19;3.60;;;3.30;;
30543;SDS011;43388;46.308;4.600;2023-08-30T04:57:45;3.55;;;3.25;;
30543;SDS011;43388;46.308;4.600;2023-08-30T05:00:12;3.70;;;3.40;;
30543;SDS011;43388;46.308;4.600;2023-08-30T05:02:38;3.70;;;3.40;;
30543;SDS011;43388;46.308;4.600;2023-08-30T05:05:05;6.03;;;3.60;;
30543;SDS011;43388;46.308;4.600;2023-08-30T05:07:32;4.00;;;3.50;;
30543;SDS011;43388;46.308;4.600;2023-08-30T05:09:58;6.45;;;3.03;;
30543;SDS011;43388;46.308;4.600;2023-08-30T05:12:24;6.68;;;3.30;;
30543;SDS011;43388;46.308;4.600;2023-08-30T05:14:50;4.90;;;3.30;;
30543;SDS011;43388;46.308;4.600;2023-08-30T05:17:16;3.97;;;3.45;;
30543;SDS011;43388;46.308;4.600;2023-08-30T05:19:42;3.20;;;2.92;;
30543;SDS011;43388;46.308;4.600;2023-08-30T05:22:08;2.85;;;2.65;;
30543;SDS011;43388;46.308;4.600;2023-08-30T05:24:34;4.93;;;2.90;;
30543;SDS011;43388;46.308;4.600;2023-08-30T05:27:02;3.10;;;2.90;;
30543;SDS011;43388;46.308;4.600;2023-08-30T05:29:28;3.90;;;2.85;;
30543;SDS011;43388;46.308;4.600;2023-08-30T05:31:54;4.70;;;3.08;;
30543;SDS011;43388;46.308;4.600;2023-08-30T05:34:20;3.65;;;3.30;;
30543;SDS011;43388;46.308;4.600;2023-08-30T05:36:46;3.42;;;3.13;;
30543;SDS011;43388;46.308;4.600;2023-08-30T05:39:12;3.53;;;3.10;;
30543;SDS011;43388;46.308;4.600;2023-08-30T05:41:38;3.42;;;3.17;;
30543;SDS011;43388;46.308;4.600;2023-08-30T05:44:04;5.53;;;3.20;;
30543;SDS011;43388;46.308;4.600;2023-08-30T05:46:31;3.42;;;3.15;;
30543;SDS011;43388;46.308;4.600;2023-08-30T05:48:57;4.05;;;3.67;;
30543;SDS011;43388;46.308;4.600;2023-08-30T05:51:23;5.35;;;3.60;;
30543;SDS011;43388;46.308;4.600;2023-08-30T05:53:49;3.50;;;3.17;;
30543;SDS011;43388;46.308;4.600;2023-08-30T05:56:15;8.68;;;3.83;;
30543;SDS011;43388;46.308;4.600;2023-08-30T05:58:42;3.40;;;3.10;;
30543;SDS011;43388;46.308;4.600;2023-08-30T06:01:08;4.82;;;3.25;;
30543;SDS011;43388;46.308;4.600;2023-08-30T06:03:34;7.20;;;3.65;;
30543;SDS011;43388;46.308;4.600;2023-08-30T06:06:00;4.88;;;3.85;;
30543;SDS011;43388;46.308;4.600;2023-08-30T06:08:26;5.85;;;3.35;;
30543;SDS011;43388;46.308;4.600;2023-08-30T06:10:52;5.00;;;3.10;;
30543;SDS011;43388;46.308;4.600;2023-08-30T06:13:18;4.00;;;3.63;;
30543;SDS011;43388;46.308;4.600;2023-08-30T06:15:44;4.30;;;3.03;;
30543;SDS011;43388;46.308;4.600;2023-08-30T06:18:10;3.83;;;3.40;;
30543;SDS011;43388;46.308;4.600;2023-08-30T06:20:39;5.47;;;3.17;;
30543;SDS011;43388;46.308;4.600;2023-08-30T06:23:06;3.45;;;3.15;;
30543;SDS011;43388;46.308;4.600;2023-08-30T06:25:32;3.65;;;3.22;;
30543;SDS011;43388;46.308;4.600;2023-08-30T06:27:58;3.50;;;3.20;;
30543;SDS011;43388;46.308;4.600;2023-08-30T06:30:27;6.63;;;3.22;;
30543;SDS011;43388;46.308;4.600;2023-08-30T06:32:54;5.80;;;4.20;;
30543;SDS011;43388;46.308;4.600;2023-08-30T06:35:20;6.25;;;3.20;;
30543;SDS011;43388;46.308;4.600;2023-08-30T06:37:46;5.32;;;3.47;;
30543;SDS011;43388;46.308;4.600;2023-08-30T06:40:12;4.03;;;3.55;;
30543;SDS011;43388;46.308;4.600;2023-08-30T06:42:38;3.42;;;3.13;;
30543;SDS011;43388;46.308;4.600;2023-08-30T06:45:05;3.72;;;3.38;;
30543;SDS011;43388;46.308;4.600;2023-08-30T06:47:31;9.07;;;3.70;;
30543;SDS011;43388;46.308;4.600;2023-08-30T06:49:57;3.58;;;3.22;;
30543;SDS011;43388;46.308;4.600;2023-08-30T06:52:24;7.18;;;3.67;;
30543;SDS011;43388;46.308;4.600;2023-08-30T06:54:50;14.77;;;3.28;;
30543;SDS011;43388;46.308;4.600;2023-08-30T06:57:16;6.70;;;3.50;;
30543;SDS011;43388;46.308;4.600;2023-08-30T06:59:42;4.15;;;3.05;;
30543;SDS011;43388;46.308;4.600;2023-08-30T07:02:09;4.75;;;3.75;;
30543;SDS011;43388;46.308;4.600;2023-08-30T07:04:41;4.00;;;3.60;;
30543;SDS011;43388;46.308;4.600;2023-08-30T07:07:07;4.85;;;3.63;;
30543;SDS011;43388;46.308;4.600;2023-08-30T07:09:33;5.43;;;3.25;;
30543;SDS011;43388;46.308;4.600;2023-08-30T07:12:00;4.13;;;3.47;;
30543;SDS011;43388;46.308;4.600;2023-08-30T07:14:26;4.28;;;3.88;;
30543;SDS011;43388;46.308;4.600;2023-08-30T07:16:52;5.90;;;3.30;;
30543;SDS011;43388;46.308;4.600;2023-08-30T07:19:17;5.15;;;3.80;;
30543;SDS011;43388;46.308;4.600;2023-08-30T07:21:43;4.63;;;3.58;;
30543;SDS011;43388;46.308;4.600;2023-08-30T07:24:09;3.60;;;3.30;;
30543;SDS011;43388;46.308;4.600;2023-08-30T07:26:36;4.60;;;3.08;;
30543;SDS011;43388;46.308;4.600;2023-08-30T07:29:02;6.40;;;3.40;;
30543;SDS011;43388;46.308;4.600;2023-08-30T07:31:32;6.82;;;3.05;;
30543;SDS011;43388;46.308;4.600;2023-08-30T07:33:58;4.18;;;3.17;;
30543;SDS011;43388;46.308;4.600;2023-08-30T07:36:25;6.75;;;3.83;;
30543;SDS011;43388;46.308;4.600;2023-08-30T07:38:51;3.78;;;3.47;;
30543;SDS011;43388;46.308;4.600;2023-08-30T07:41:17;8.70;;;3.25;;
30543;SDS011;43388;46.308;4.600;2023-08-30T07:43:43;3.80;;;3.50;;
30543;SDS011;43388;46.308;4.600;2023-08-30T07:46:09;3.90;;;3.60;;
30543;SDS011;43388;46.308;4.600;2023-08-30T07:48:35;14.25;;;4.53;;
30543;SDS011;43388;46.308;4.600;2023-08-30T07:51:01;4.15;;;3.75;;
30543;SDS011;43388;46.308;4.600;2023-08-30T07:53:27;4.82;;;3.75;;
30543;SDS011;43388;46.308;4.600;2023-08-30T07:55:53;4.97;;;4.13;;
30543;SDS011;43388;46.308;4.600;2023-08-30T07:58:19;3.80;;;3.50;;
30543;SDS011;43388;46.308;4.600;2023-08-30T08:00:45;4.30;;;3.90;;
30543;SDS011;43388;46.308;4.600;2023-08-30T08:03:11;4.05;;;3.75;;
30543;SDS011;43388;46.308;4.600;2023-08-30T08:05:37;5.82;;;4.22;;
30543;SDS011;43388;46.308;4.600;2023-08-30T08:08:03;4.47;;;4.07;;
30543;SDS011;43388;46.308;4.600;2023-08-30T08:10:33;5.30;;;3.85;;
30543;SDS011;43388;46.308;4.600;2023-08-30T08:12:59;4.45;;;4.00;;
30543;SDS011;43388;46.308;4.600;2023-08-30T08:15:25;5.43;;;3.65;;
30543;SDS011;43388;46.308;4.600;2023-08-30T08:17:51;3.97;;;3.42;;
30543;SDS011;43388;46.308;4.600;2023-08-30T08:20:17;4.22;;;3.83;;
30543;SDS011;43388;46.308;4.600;2023-08-30T08:22:43;4.07;;;3.47;;
30543;SDS011;43388;46.308;4.600;2023-08-30T08:25:09;4.65;;;4.03;;
30543;SDS011;43388;46.308;4.600;2023-08-30T08:27:36;4.00;;;3.50;;
30543;SDS011;43388;46.308;4.600;2023-08-30T08:30:03;4.38;;;3.97;;
30543;SDS011;43388;46.308;4.600;2023-08-30T08:32:29;4.32;;;3.90;;
30543;SDS011;43388;46.308;4.600;2023-08-30T08:34:56;4.28;;;3.55;;
30543;SDS011;43388;46.308;4.600;2023-08-30T08:37:22;3.53;;;3.22;;
30543;SDS011;43388;46.308;4.600;2023-08-30T08:39:48;4.07;;;3.47;;
30543;SDS011;43388;46.308;4.600;2023-08-30T08:42:17;3.78;;;3.47;;
30543;SDS011;43388;46.308;4.600;2023-08-30T08:44:43;3.78;;;3.47;;
30543;SDS011;43388;46.308;4.600;2023-08-30T08:47:13;3.38;;;3.08;;
30543;SDS011;43388;46.308;4.600;2023-08-30T08:49:39;3.58;;;3.28;;
30543;SDS011;43388;46.308;4.600;2023-08-30T08:52:05;3.80;;;3.05;;
30543;SDS011;43388;46.308;4.600;2023-08-30T08:54:31;3.55;;;3.15;;
30543;SDS011;43388;46.308;4.600;2023-08-30T08:56:57;4.93;;;3.13;;
30543;SDS011;43388;46.308;4.600;2023-08-30T08:59:23;5.88;;;2.85;;
30543;SDS011;43388;46.308;4.600;2023-08-30T09:01:50;4.30;;;3.40;;
30543;SDS011;43388;46.308;4.600;2023-08-30T09:04:16;4.80;;;3.13;;
30543;SDS011;43388;46.308;4.600;2023-08-30T09:06:42;5.50;;;2.97;;
30543;SDS011;43388;46.308;4.600;2023-08-30T09:09:08;3.97;;;3.40;;
30543;SDS011;43388;46.308;4.600;2023-08-30T09:11:35;5.03;;;3.13;;
30543;SDS011;43388;46.308;4.600;2023-08-30T09:14:01;3.55;;;3.17;;
30543;SDS011;43388;46.308;4.600;2023-08-30T09:16:27;3.22;;;3.00;;
30543;SDS011;43388;46.308;4.600;2023-08-30T09:19:02;3.22;;;2.90;;
30543;SDS011;43388;46.308;4.600;2023-08-30T09:21:29;3.28;;;2.90;;
30543;SDS011;43388;46.308;4.600;2023-08-30T09:24:05;8.02;;;3.25;;
30543;SDS011;43388;46.308;4.600;2023-08-30T09:26:32;3.17;;;2.88;;
30543;SDS011;43388;46.308;4.600;2023-08-30T09:29:02;3.50;;;3.20;;
30543;SDS011;43388;46.308;4.600;2023-08-30T09:31:35;3.25;;;2.95;;
30543;SDS011;43388;46.308;4.600;2023-08-30T09:34:02;8.82;;;3.50;;
30543;SDS011;43388;46.308;4.600;2023-08-30T09:36:41;3.28;;;2.97;;
30543;SDS011;43388;46.308;4.600;2023-08-30T09:39:08;5.53;;;3.45;;
30543;SDS011;43388;46.308;4.600;2023-08-30T09:41:46;2.72;;;2.50;;
30543;SDS011;43388;46.308;4.600;2023-08-30T09:44:15;4.32;;;2.58;;
30543;SDS011;43388;46.308;4.600;2023-08-30T09:46:51;6.50;;;3.17;;
30543;SDS011;43388;46.308;4.600;2023-08-30T09:49:24;27.55;;;4.07;;
30543;SDS011;43388;46.308;4.600;2023-08-30T09:51:51;5.18;;;3.30;;
30543;SDS011;43388;46.308;4.600;2023-08-30T09:54:20;4.18;;;3.10;;
30543;SDS011;43388;46.308;4.600;2023-08-30T09:56:47;3.72;;;2.95;;
30543;SDS011;43388;46.308;4.600;2023-08-30T09:59:17;4.30;;;2.88;;
30543;SDS011;43388;46.308;4.600;2023-08-30T10:01:43;7.70;;;3.63;;
30543;SDS011;43388;46.308;4.600;2023-08-30T10:04:10;5.63;;;3.22;;
30543;SDS011;43388;46.308;4.600;2023-08-30T10:06:39;3.70;;;2.78;;
30543;SDS011;43388;46.308;4.600;2023-08-30T10:09:05;5.18;;;2.88;;
30543;SDS011;43388;46.308;4.600;2023-08-30T10:11:33;5.90;;;3.15;;
30543;SDS011;43388;46.308;4.600;2023-08-30T10:14:00;2.90;;;2.60;;
30543;SDS011;43388;46.308;4.600;2023-08-30T10:16:26;3.92;;;2.78;;
30543;SDS011;43388;46.308;4.600;2023-08-30T10:18:54;6.18;;;2.47;;
30543;SDS011;43388;46.308;4.600;2023-08-30T10:21:24;4.03;;;2.55;;
30543;SDS011;43388;46.308;4.600;2023-08-30T10:23:50;3.15;;;2.60;;
30543;SDS011;43388;46.308;4.600;2023-08-30T10:26:20;10.32;;;2.72;;
30543;SDS011;43388;46.308;4.600;2023-08-30T10:28:47;3.00;;;2.80;;
30543;SDS011;43388;46.308;4.600;2023-08-30T10:31:13;3.20;;;2.70;;
30543;SDS011;43388;46.308;4.600;2023-08-30T10:33:49;3.47;;;2.60;;
30543;SDS011;43388;46.308;4.600;2023-08-30T10:36:55;2.88;;;2.63;;
30543;SDS011;43388;46.308;4.600;2023-08-30T10:39:12;5.43;;;2.33;;
30543;SDS011;43388;46.308;4.600;2023-08-30T10:41:53;4.13;;;2.95;;
30543;SDS011;43388;46.308;4.600;2023-08-30T10:44:19;6.22;;;2.67;;
30543;SDS011;43388;46.308;4.600;2023-08-30T10:46:51;3.05;;;2.75;;
30543;SDS011;43388;46.308;4.600;2023-08-30T10:49:18;2.85;;;2.65;;
30543;SDS011;43388;46.308;4.600;2023-08-30T10:51:44;2.97;;;2.28;;
30543;SDS011;43388;46.308;4.600;2023-08-30T10:54:12;3.50;;;2.58;;
30543;SDS011;43388;46.308;4.600;2023-08-30T10:56:48;2.85;;;2.65;;
30543;SDS011;43388;46.308;4.600;2023-08-30T10:59:18;6.63;;;2.72;;
30543;SDS011;43388;46.308;4.600;2023-08-30T11:01:47;5.07;;;2.70;;
30543;SDS011;43388;46.308;4.600;2023-08-30T11:04:14;10.02;;;3.42;;
30543;SDS011;43388;46.308;4.600;2023-08-30T11:06:46;4.60;;;2.67;;
30543;SDS011;43388;46.308;4.600;2023-08-30T11:09:13;4.68;;;2.80;;
30543;SDS011;43388;46.308;4.600;2023-08-30T11:11:40;4.55;;;3.10;;
30543;SDS011;43388;46.308;4.600;2023-08-30T11:14:06;3.53;;;2.70;;
30543;SDS011;43388;46.308;4.600;2023-08-30T11:16:34;2.83;;;2.63;;
30543;SDS011;43388;46.308;4.600;2023-08-30T11:19:03;12.30;;;3.05;;
30543;SDS011;43388;46.308;4.600;2023-08-30T11:21:30;4.00;;;2.80;;
30543;SDS011;43388;46.308;4.600;2023-08-30T11:23:56;2.80;;;2.60;;
30543;SDS011;43388;46.308;4.600;2023-08-30T11:26:22;10.07;;;3.15;;
30543;SDS011;43388;46.308;4.600;2023-08-30T11:28:48;3.72;;;3.40;;
30543;SDS011;43388;46.308;4.600;2023-08-30T11:31:23;4.68;;;3.08;;
30543;SDS011;43388;46.308;4.600;2023-08-30T11:33:52;3.15;;;2.85;;
30543;SDS011;43388;46.308;4.600;2023-08-30T11:36:21;3.25;;;2.95;;
30543;SDS011;43388;46.308;4.600;2023-08-30T11:38:47;6.65;;;3.00;;
30543;SDS011;43388;46.308;4.600;2023-08-30T11:41:13;3.88;;;3.08;;
30543;SDS011;43388;46.308;4.600;2023-08-30T11:43:39;4.80;;;2.95;;
30543;SDS011;43388;46.308;4.600;2023-08-30T11:46:06;6.72;;;2.72;;
30543;SDS011;43388;46.308;4.600;2023-08-30T11:48:32;3.30;;;3.00;;
30543;SDS011;43388;46.308;4.600;2023-08-30T11:50:58;3.53;;;3.03;;
30543;SDS011;43388;46.308;4.600;2023-08-30T11:53:24;4.07;;;3.67;;
30543;SDS011;43388;46.308;4.600;2023-08-30T11:55:51;3.63;;;3.33;;
30543;SDS011;43388;46.308;4.600;2023-08-30T11:58:20;9.23;;;3.80;;
30543;SDS011;43388;46.308;4.600;2023-08-30T12:00:46;7.22;;;3.78;;
30543;SDS011;43388;46.308;4.600;2023-08-30T12:03:15;4.90;;;3.72;;
30543;SDS011;43388;46.308;4.600;2023-08-30T12:05:47;8.07;;;3.58;;
30543;SDS011;43388;46.308;4.600;2023-08-30T12:08:48;9.82;;;3.65;;
30543;SDS011;43388;46.308;4.600;2023-08-30T12:11:16;19.90;;;5.35;;
30543;SDS011;43388;46.308;4.600;2023-08-30T12:13:42;4.88;;;3.45;;
30543;SDS011;43388;46.308;4.600;2023-08-30T12:16:08;4.28;;;3.53;;
30543;SDS011;43388;46.308;4.600;2023-08-30T12:18:40;3.60;;;3.30;;
30543;SDS011;43388;46.308;4.600;2023-08-30T12:21:07;3.75;;;3.20;;
30543;SDS011;43388;46.308;4.600;2023-08-30T12:23:33;6.15;;;3.65;;
30543;SDS011;43388;46.308;4.600;2023-08-30T12:28:32;5.47;;;2.90;;
30543;SDS011;43388;46.308;4.600;2023-08-30T12:30:59;3.30;;;2.97;;
30543;SDS011;43388;46.308;4.600;2023-08-30T12:33:25;6.75;;;3.20;;
30543;SDS011;43388;46.308;4.600;2023-08-30T12:35:51;6.30;;;3.00;;
30543;SDS011;43388;46.308;4.600;2023-08-30T12:38:18;3.97;;;3.42;;
30543;SDS011;43388;46.308;4.600;2023-08-30T12:40:47;3.63;;;3.33;;
30543;SDS011;43388;46.308;4.600;2023-08-30T12:43:14;3.50;;;3.20;;
30543;SDS011;43388;46.308;4.600;2023-08-30T12:45:40;3.50;;;3.20;;
30543;SDS011;43388;46.308;4.600;2023-08-30T12:48:07;4.38;;;3.00;;
30543;SDS011;43388;46.308;4.600;2023-08-30T12:50:33;3.30;;;3.00;;
30543;SDS011;43388;46.308;4.600;2023-08-30T12:53:00;5.55;;;3.33;;
30543;SDS011;43388;46.308;4.600;2023-08-30T12:55:26;4.53;;;2.83;;
30543;SDS011;43388;46.308;4.600;2023-08-30T12:57:52;6.25;;;2.80;;
30543;SDS011;43388;46.308;4.600;2023-08-30T13:00:18;3.35;;;3.05;;
30543;SDS011;43388;46.308;4.600;2023-08-30T13:02:44;3.60;;;3.00;;
30543;SDS011;43388;46.308;4.600;2023-08-30T13:05:10;3.50;;;3.20;;
30543;SDS011;43388;46.308;4.600;2023-08-30T13:07:37;6.68;;;3.10;;
30543;SDS011;43388;46.308;4.600;2023-08-30T13:10:04;3.47;;;3.13;;
30543;SDS011;43388;46.308;4.600;2023-08-30T13:12:30;3.65;;;3.35;;
30543;SDS011;43388;46.308;4.600;2023-08-30T13:14:56;2.67;;;2.47;;
30543;SDS011;43388;46.308;4.600;2023-08-30T13:17:22;2.92;;;2.63;;
30543;SDS011;43388;46.308;4.600;2023-08-30T13:19:48;13.38;;;3.08;;
30543;SDS011;43388;46.308;4.600;2023-08-30T13:22:14;7.75;;;3.33;;
30543;SDS011;43388;46.308;4.600;2023-08-30T13:24:41;3.13;;;2.72;;
30543;SDS011;43388;46.308;4.600;2023-08-30T13:27:07;5.22;;;2.60;;
30543;SDS011;43388;46.308;4.600;2023-08-30T13:29:34;2.95;;;2.58;;
30543;SDS011;43388;46.308;4.600;2023-08-30T13:32:00;2.70;;;2.42;;
30543;SDS011;43388;46.308;4.600;2023-08-30T13:34:26;3.80;;;2.50;;
30543;SDS011;43388;46.308;4.600;2023-08-30T13:36:52;2.60;;;2.38;;
30543;SDS011;43388;46.308;4.600;2023-08-30T13:39:18;4.80;;;3.00;;
30543;SDS011;43388;46.308;4.600;2023-08-30T13:41:45;3.17;;;2.78;;
30543;SDS011;43388;46.308;4.600;2023-08-30T13:44:11;5.60;;;2.95;;
30543;SDS011;43388;46.308;4.600;2023-08-30T13:46:37;5.60;;;3.30;;
30543;SDS011;43388;46.308;4.600;2023-08-30T13:49:03;2.95;;;2.65;;
30543;SDS011;43388;46.308;4.600;2023-08-30T13:51:29;4.38;;;3.08;;
30543;SDS011;43388;46.308;4.600;2023-08-30T13:53:55;4.35;;;3.30;;
30543;SDS011;43388;46.308;4.600;2023-08-30T13:56:22;3.05;;;2.60;;
30543;SDS011;43388;46.308;4.600;2023-08-30T13:58:48;3.65;;;2.50;;
30543;SDS011;43388;46.308;4.600;2023-08-30T14:01:15;6.65;;;2.75;;
30543;SDS011;43388;46.308;4.600;2023-08-30T14:03:41;2.92;;;2.70;;
30543;SDS011;43388;46.308;4.600;2023-08-30T14:06:07;2.80;;;2.55;;
30543;SDS011;43388;46.308;4.600;2023-08-30T14:08:33;4.07;;;2.90;;
30543;SDS011;43388;46.308;4.600;2023-08-30T14:10:59;3.92;;;2.58;;
30543;SDS011;43388;46.308;4.600;2023-08-30T14:13:25;2.83;;;2.60;;
30543;SDS011;43388;46.308;4.600;2023-08-30T14:15:57;2.80;;;2.55;;
30543;SDS011;43388;46.308;4.600;2023-08-30T14:18:23;3.55;;;2.63;;
30543;SDS011;43388;46.308;4.600;2023-08-30T14:20:49;2.90;;;2.60;;
30543;SDS011;43388;46.308;4.600;2023-08-30T14:23:15;3.17;;;2.50;;
30543;SDS011;43388;46.308;4.600;2023-08-30T14:25:41;2.97;;;2.67;;
30543;SDS011;43388;46.308;4.600;2023-08-30T14:28:07;5.90;;;4.18;;
30543;SDS011;43388;46.308;4.600;2023-08-30T14:30:33;3.83;;;3.53;;
30543;SDS011;43388;46.308;4.600;2023-08-30T14:32:59;4.07;;;2.70;;
30543;SDS011;43388;46.308;4.600;2023-08-30T14:35:25;3.97;;;2.90;;
30543;SDS011;43388;46.308;4.600;2023-08-30T14:37:52;5.03;;;2.42;;
30543;SDS011;43388;46.308;4.600;2023-08-30T14:40:18;3.03;;;2.55;;
30543;SDS011;43388;46.308;4.600;2023-08-30T14:42:44;4.45;;;2.60;;
30543;SDS011;43388;46.308;4.600;2023-08-30T14:45:10;2.55;;;2.35;;
30543;SDS011;43388;46.308;4.600;2023-08-30T14:47:37;3.58;;;2.42;;
30543;SDS011;43388;46.308;4.600;2023-08-30T14:50:03;3.35;;;2.85;;
30543;SDS011;43388;46.308;4.600;2023-08-30T14:52:29;4.97;;;2.67;;
30543;SDS011;43388;46.308;4.600;2023-08-30T14:54:55;3.03;;;2.47;;
30543;SDS011;43388;46.308;4.600;2023-08-30T14:57:22;2.47;;;2.28;;